Aérodrome :
LOGIN :

S'inscrire | Disclaimer

   EN    FR    IT 

 










Légende :    VFR   VFR Marginal   IFR   IFR Intensif   IFR Très Intensif
Visi : 
Plafond : 
>= 8 km
>= 3000ft
5 à 8 km
1000 à 3000 ft
1500m à 5 km
500 à 1000 ft
800 à 1500m
200 à 500 ft
< 800m
< 200 ft
Symboles :   Orages  Brouillard  Fortes neiges  Fortes précipitations  Vent > 20 kt
SIGMETs :   Divers  Orages  Givrage  Turbulence  Onde Orograph.  Cendres Volcan.






- Altitude de l'aérodrome : 154 ft
- Code IATA : PKV


ULOO - Pskov

DERNIER METAR :
  • 281630Z 08002MPS 040V110 9999 FEW013 OVC043 09/07 Q1033 R01/090060 NOSIG RMK QFE770

METARs EXPIRÉS :
  • 281600Z 08002MPS 050V110 9999 FEW014 OVC040 09/07 Q1033 R01/090060 NOSIG RMK QFE770
  • 281530Z VRB01MPS 9999 FEW013 OVC041 09/07 Q1033 R01/090060 NOSIG RMK QFE770
  • 281500Z 08002MPS 9999 FEW014 OVC042 09/07 Q1032 R01/090060 NOSIG RMK QFE770
  • 281430Z 07004MPS 9999 FEW015 BKN043 10/07 Q1032 R01/090060 NOSIG RMK QFE770
  • 281400Z 08004MPS 030V110 9999 FEW016 BKN045 10/07 Q1032 R01/090060 NOSIG RMK QFE770

TAF TAF ULOO
Valide du 28 à 15h jusqu'au 29 à 00h UTC


281353Z 2815/2824 08003G08MPS 6000 FEW010 BKN016
TEMPO 2820/2824 2000 -SHRA BR SCT006 BKN016CB



MET'MAP, la Météo Aéronautique d'un coup d'oeil ! - Copyright ORBIFLY Décembre 2007 - Disclaimer

ORBIFLY MET'MAP TEAM :

Programmation & Développement : Alexandra Zaïnal
Sur une idée originale de : Baudouin d'Aumeries
Assistance à la programmation : Marc-Olivier Méhu
Soutien technique & logistique : Manuel Goepfert

Contact : metmap@orbifly.com




SOURCES & CREDITS :

   NOAA